sensor_id;sensor_type;location;lat;lon;timestamp;P1;durP1;ratioP1;P2;durP2;ratioP2
18685;SDS011;9473;52.342;13.110;2022-09-13T00:01:32;5.38;;;2.22;;
18685;SDS011;9473;52.342;13.110;2022-09-13T00:04:01;2.83;;;2.03;;
18685;SDS011;9473;52.342;13.110;2022-09-13T00:06:29;3.17;;;2.00;;
18685;SDS011;9473;52.342;13.110;2022-09-13T00:08:56;2.42;;;2.05;;
18685;SDS011;9473;52.342;13.110;2022-09-13T00:11:25;2.40;;;1.95;;
18685;SDS011;9473;52.342;13.110;2022-09-13T00:13:52;4.53;;;2.50;;
18685;SDS011;9473;52.342;13.110;2022-09-13T00:16:20;2.90;;;2.28;;
18685;SDS011;9473;52.342;13.110;2022-09-13T00:18:47;3.13;;;2.00;;
18685;SDS011;9473;52.342;13.110;2022-09-13T00:21:16;5.13;;;2.22;;
18685;SDS011;9473;52.342;13.110;2022-09-13T00:23:44;4.53;;;1.70;;
18685;SDS011;9473;52.342;13.110;2022-09-13T00:26:12;5.93;;;2.17;;
18685;SDS011;9473;52.342;13.110;2022-09-13T00:28:39;4.75;;;1.67;;
18685;SDS011;9473;52.342;13.110;2022-09-13T00:31:07;4.30;;;2.08;;
18685;SDS011;9473;52.342;13.110;2022-09-13T00:33:34;6.40;;;2.50;;
18685;SDS011;9473;52.342;13.110;2022-09-13T00:36:02;4.97;;;2.20;;
18685;SDS011;9473;52.342;13.110;2022-09-13T00:38:31;3.08;;;2.00;;
18685;SDS011;9473;52.342;13.110;2022-09-13T00:40:57;3.30;;;2.40;;
18685;SDS011;9473;52.342;13.110;2022-09-13T00:43:39;5.38;;;2.60;;
18685;SDS011;9473;52.342;13.110;2022-09-13T00:46:06;4.80;;;2.72;;
18685;SDS011;9473;52.342;13.110;2022-09-13T00:48:33;3.30;;;2.20;;
18685;SDS011;9473;52.342;13.110;2022-09-13T00:51:02;3.40;;;2.60;;
18685;SDS011;9473;52.342;13.110;2022-09-13T00:53:31;3.78;;;2.80;;
18685;SDS011;9473;52.342;13.110;2022-09-13T00:55:59;3.65;;;2.75;;
18685;SDS011;9473;52.342;13.110;2022-09-13T00:58:28;5.60;;;2.75;;
18685;SDS011;9473;52.342;13.110;2022-09-13T01:00:57;3.58;;;2.60;;
18685;SDS011;9473;52.342;13.110;2022-09-13T01:03:24;3.70;;;2.50;;
18685;SDS011;9473;52.342;13.110;2022-09-13T01:05:54;2.63;;;2.30;;
18685;SDS011;9473;52.342;13.110;2022-09-13T01:08:22;3.30;;;2.60;;
18685;SDS011;9473;52.342;13.110;2022-09-13T01:10:51;5.38;;;3.10;;
18685;SDS011;9473;52.342;13.110;2022-09-13T01:13:19;6.20;;;3.13;;
18685;SDS011;9473;52.342;13.110;2022-09-13T01:15:46;4.70;;;2.67;;
18685;SDS011;9473;52.342;13.110;2022-09-13T01:18:14;4.90;;;3.00;;
18685;SDS011;9473;52.342;13.110;2022-09-13T01:20:54;4.50;;;3.25;;
18685;SDS011;9473;52.342;13.110;2022-09-13T01:23:39;5.05;;;2.85;;
18685;SDS011;9473;52.342;13.110;2022-09-13T01:26:34;4.68;;;2.97;;
18685;SDS011;9473;52.342;13.110;2022-09-13T01:31:58;7.03;;;2.78;;
18685;SDS011;9473;52.342;13.110;2022-09-13T01:34:32;3.20;;;2.70;;
18685;SDS011;9473;52.342;13.110;2022-09-13T01:37:07;3.58;;;2.80;;
18685;SDS011;9473;52.342;13.110;2022-09-13T01:39:41;5.65;;;2.63;;
18685;SDS011;9473;52.342;13.110;2022-09-13T01:42:14;4.72;;;3.25;;
18685;SDS011;9473;52.342;13.110;2022-09-13T01:44:49;5.28;;;3.20;;
18685;SDS011;9473;52.342;13.110;2022-09-13T01:47:23;4.68;;;3.03;;
18685;SDS011;9473;52.342;13.110;2022-09-13T01:49:54;6.78;;;3.00;;
18685;SDS011;9473;52.342;13.110;2022-09-13T01:52:23;3.17;;;2.78;;
18685;SDS011;9473;52.342;13.110;2022-09-13T01:54:53;4.20;;;3.22;;
18685;SDS011;9473;52.342;13.110;2022-09-13T01:57:25;5.72;;;2.80;;
18685;SDS011;9473;52.342;13.110;2022-09-13T01:59:55;4.65;;;2.65;;
18685;SDS011;9473;52.342;13.110;2022-09-13T02:02:27;4.30;;;3.05;;
18685;SDS011;9473;52.342;13.110;2022-09-13T02:04:58;5.22;;;2.90;;
18685;SDS011;9473;52.342;13.110;2022-09-13T02:07:28;5.57;;;3.10;;
18685;SDS011;9473;52.342;13.110;2022-09-13T02:09:57;4.35;;;2.80;;
18685;SDS011;9473;52.342;13.110;2022-09-13T02:12:25;3.80;;;2.88;;
18685;SDS011;9473;52.342;13.110;2022-09-13T02:14:55;4.32;;;3.00;;
18685;SDS011;9473;52.342;13.110;2022-09-13T02:17:24;3.90;;;3.10;;
18685;SDS011;9473;52.342;13.110;2022-09-13T02:19:55;6.53;;;3.33;;
18685;SDS011;9473;52.342;13.110;2022-09-13T02:22:24;6.47;;;3.22;;
18685;SDS011;9473;52.342;13.110;2022-09-13T02:24:53;7.18;;;3.30;;
18685;SDS011;9473;52.342;13.110;2022-09-13T02:27:21;5.85;;;3.55;;
18685;SDS011;9473;52.342;13.110;2022-09-13T02:29:51;4.28;;;3.08;;
18685;SDS011;9473;52.342;13.110;2022-09-13T02:32:20;5.75;;;3.22;;
18685;SDS011;9473;52.342;13.110;2022-09-13T02:34:49;3.72;;;2.70;;
18685;SDS011;9473;52.342;13.110;2022-09-13T02:37:19;4.10;;;2.83;;
18685;SDS011;9473;52.342;13.110;2022-09-13T02:39:48;4.22;;;3.08;;
18685;SDS011;9473;52.342;13.110;2022-09-13T02:42:17;4.35;;;3.40;;
18685;SDS011;9473;52.342;13.110;2022-09-13T02:44:45;5.85;;;3.33;;
18685;SDS011;9473;52.342;13.110;2022-09-13T02:50:18;5.25;;;3.50;;
18685;SDS011;9473;52.342;13.110;2022-09-13T02:52:51;4.63;;;3.40;;
18685;SDS011;9473;52.342;13.110;2022-09-13T02:55:23;5.15;;;3.20;;
18685;SDS011;9473;52.342;13.110;2022-09-13T02:57:56;5.50;;;3.40;;
18685;SDS011;9473;52.342;13.110;2022-09-13T03:00:25;8.13;;;3.90;;
18685;SDS011;9473;52.342;13.110;2022-09-13T03:02:53;3.45;;;2.80;;
18685;SDS011;9473;52.342;13.110;2022-09-13T03:05:20;7.97;;;3.42;;
18685;SDS011;9473;52.342;13.110;2022-09-13T03:07:47;7.18;;;3.60;;
18685;SDS011;9473;52.342;13.110;2022-09-13T03:10:16;4.53;;;3.30;;
18685;SDS011;9473;52.342;13.110;2022-09-13T03:12:48;5.20;;;3.35;;
18685;SDS011;9473;52.342;13.110;2022-09-13T03:15:19;6.75;;;3.45;;
18685;SDS011;9473;52.342;13.110;2022-09-13T03:17:52;3.60;;;3.20;;
18685;SDS011;9473;52.342;13.110;2022-09-13T03:20:23;4.57;;;3.25;;
18685;SDS011;9473;52.342;13.110;2022-09-13T03:23:07;5.65;;;3.30;;
18685;SDS011;9473;52.342;13.110;2022-09-13T03:25:46;4.55;;;3.20;;
18685;SDS011;9473;52.342;13.110;2022-09-13T03:28:17;4.22;;;2.55;;
18685;SDS011;9473;52.342;13.110;2022-09-13T03:30:48;4.32;;;3.30;;
18685;SDS011;9473;52.342;13.110;2022-09-13T03:33:16;4.45;;;2.80;;
18685;SDS011;9473;52.342;13.110;2022-09-13T03:35:47;6.30;;;3.25;;
18685;SDS011;9473;52.342;13.110;2022-09-13T03:38:18;3.50;;;2.88;;
18685;SDS011;9473;52.342;13.110;2022-09-13T03:40:47;6.22;;;4.00;;
18685;SDS011;9473;52.342;13.110;2022-09-13T03:43:15;4.72;;;3.47;;
18685;SDS011;9473;52.342;13.110;2022-09-13T03:45:44;3.67;;;3.08;;
18685;SDS011;9473;52.342;13.110;2022-09-13T03:48:12;3.22;;;2.45;;
18685;SDS011;9473;52.342;13.110;2022-09-13T03:50:39;6.57;;;3.10;;
18685;SDS011;9473;52.342;13.110;2022-09-13T03:53:08;4.47;;;2.95;;
18685;SDS011;9473;52.342;13.110;2022-09-13T03:55:37;5.75;;;3.30;;
18685;SDS011;9473;52.342;13.110;2022-09-13T03:58:06;6.22;;;3.47;;
18685;SDS011;9473;52.342;13.110;2022-09-13T04:00:33;4.18;;;3.50;;
18685;SDS011;9473;52.342;13.110;2022-09-13T04:03:00;5.47;;;3.50;;
18685;SDS011;9473;52.342;13.110;2022-09-13T04:05:27;4.05;;;3.00;;
18685;SDS011;9473;52.342;13.110;2022-09-13T04:07:54;4.25;;;2.85;;
18685;SDS011;9473;52.342;13.110;2022-09-13T04:10:21;3.50;;;3.03;;
18685;SDS011;9473;52.342;13.110;2022-09-13T04:12:49;3.80;;;2.97;;
18685;SDS011;9473;52.342;13.110;2022-09-13T04:15:17;5.88;;;4.00;;
18685;SDS011;9473;52.342;13.110;2022-09-13T04:17:45;5.82;;;4.00;;
18685;SDS011;9473;52.342;13.110;2022-09-13T04:20:12;6.05;;;4.38;;
18685;SDS011;9473;52.342;13.110;2022-09-13T04:22:39;6.43;;;4.72;;
18685;SDS011;9473;52.342;13.110;2022-09-13T04:25:07;6.93;;;4.40;;
18685;SDS011;9473;52.342;13.110;2022-09-13T04:27:34;7.63;;;3.90;;
18685;SDS011;9473;52.342;13.110;2022-09-13T04:30:01;4.75;;;3.53;;
18685;SDS011;9473;52.342;13.110;2022-09-13T04:32:30;5.72;;;3.55;;
18685;SDS011;9473;52.342;13.110;2022-09-13T04:34:57;5.45;;;4.07;;
18685;SDS011;9473;52.342;13.110;2022-09-13T04:37:24;7.15;;;4.45;;
18685;SDS011;9473;52.342;13.110;2022-09-13T04:39:51;6.30;;;4.03;;
18685;SDS011;9473;52.342;13.110;2022-09-13T04:42:18;5.18;;;3.92;;
18685;SDS011;9473;52.342;13.110;2022-09-13T04:44:45;6.60;;;4.55;;
18685;SDS011;9473;52.342;13.110;2022-09-13T04:47:14;5.07;;;4.13;;
18685;SDS011;9473;52.342;13.110;2022-09-13T04:49:42;8.18;;;4.88;;
18685;SDS011;9473;52.342;13.110;2022-09-13T04:52:09;7.40;;;4.90;;
18685;SDS011;9473;52.342;13.110;2022-09-13T04:54:36;6.30;;;4.60;;
18685;SDS011;9473;52.342;13.110;2022-09-13T04:57:03;7.57;;;4.80;;
18685;SDS011;9473;52.342;13.110;2022-09-13T04:59:30;6.57;;;4.30;;
18685;SDS011;9473;52.342;13.110;2022-09-13T05:01:57;7.13;;;4.47;;
18685;SDS011;9473;52.342;13.110;2022-09-13T05:04:24;6.25;;;4.30;;
18685;SDS011;9473;52.342;13.110;2022-09-13T05:06:53;6.85;;;3.90;;
18685;SDS011;9473;52.342;13.110;2022-09-13T05:09:20;6.50;;;4.85;;
18685;SDS011;9473;52.342;13.110;2022-09-13T05:11:46;7.85;;;4.78;;
18685;SDS011;9473;52.342;13.110;2022-09-13T05:14:13;9.38;;;5.07;;
18685;SDS011;9473;52.342;13.110;2022-09-13T05:16:40;5.45;;;3.97;;
18685;SDS011;9473;52.342;13.110;2022-09-13T05:19:07;8.45;;;4.70;;
18685;SDS011;9473;52.342;13.110;2022-09-13T05:21:35;9.63;;;4.93;;
18685;SDS011;9473;52.342;13.110;2022-09-13T05:24:03;6.35;;;5.05;;
18685;SDS011;9473;52.342;13.110;2022-09-13T05:26:30;9.43;;;5.03;;
18685;SDS011;9473;52.342;13.110;2022-09-13T05:28:57;7.00;;;4.88;;
18685;SDS011;9473;52.342;13.110;2022-09-13T05:31:24;7.18;;;4.88;;
18685;SDS011;9473;52.342;13.110;2022-09-13T05:33:52;5.50;;;3.90;;
18685;SDS011;9473;52.342;13.110;2022-09-13T05:36:20;7.97;;;5.20;;
18685;SDS011;9473;52.342;13.110;2022-09-13T05:38:47;8.90;;;5.10;;
18685;SDS011;9473;52.342;13.110;2022-09-13T05:41:15;8.48;;;5.55;;
18685;SDS011;9473;52.342;13.110;2022-09-13T05:43:42;9.40;;;5.53;;
18685;SDS011;9473;52.342;13.110;2022-09-13T05:46:10;7.35;;;5.43;;
18685;SDS011;9473;52.342;13.110;2022-09-13T05:48:37;9.35;;;5.93;;
18685;SDS011;9473;52.342;13.110;2022-09-13T05:51:04;9.60;;;6.35;;
18685;SDS011;9473;52.342;13.110;2022-09-13T05:53:31;9.32;;;6.07;;
18685;SDS011;9473;52.342;13.110;2022-09-13T05:55:58;11.10;;;6.60;;
18685;SDS011;9473;52.342;13.110;2022-09-13T05:58:27;11.85;;;5.82;;
18685;SDS011;9473;52.342;13.110;2022-09-13T06:00:54;8.10;;;5.50;;
18685;SDS011;9473;52.342;13.110;2022-09-13T06:03:21;8.57;;;6.00;;
18685;SDS011;9473;52.342;13.110;2022-09-13T06:05:48;9.95;;;6.20;;
18685;SDS011;9473;52.342;13.110;2022-09-13T06:08:15;9.25;;;5.82;;
18685;SDS011;9473;52.342;13.110;2022-09-13T06:10:42;12.02;;;6.05;;
18685;SDS011;9473;52.342;13.110;2022-09-13T06:13:09;10.65;;;6.90;;
18685;SDS011;9473;52.342;13.110;2022-09-13T06:15:38;9.40;;;6.82;;
18685;SDS011;9473;52.342;13.110;2022-09-13T06:18:05;10.05;;;6.45;;
18685;SDS011;9473;52.342;13.110;2022-09-13T06:20:32;11.32;;;7.45;;
18685;SDS011;9473;52.342;13.110;2022-09-13T06:22:58;8.57;;;5.53;;
18685;SDS011;9473;52.342;13.110;2022-09-13T06:25:25;8.32;;;5.65;;
18685;SDS011;9473;52.342;13.110;2022-09-13T06:27:52;10.63;;;6.85;;
18685;SDS011;9473;52.342;13.110;2022-09-13T06:30:19;12.00;;;7.45;;
18685;SDS011;9473;52.342;13.110;2022-09-13T06:32:48;9.48;;;6.68;;
18685;SDS011;9473;52.342;13.110;2022-09-13T06:35:14;11.80;;;6.88;;
18685;SDS011;9473;52.342;13.110;2022-09-13T06:37:42;10.88;;;6.75;;
18685;SDS011;9473;52.342;13.110;2022-09-13T06:40:09;11.63;;;7.70;;
18685;SDS011;9473;52.342;13.110;2022-09-13T06:42:37;11.35;;;7.38;;
18685;SDS011;9473;52.342;13.110;2022-09-13T06:45:05;12.45;;;7.20;;
18685;SDS011;9473;52.342;13.110;2022-09-13T06:47:32;11.77;;;6.75;;
18685;SDS011;9473;52.342;13.110;2022-09-13T06:50:01;9.68;;;6.88;;
18685;SDS011;9473;52.342;13.110;2022-09-13T06:52:27;10.43;;;6.70;;
18685;SDS011;9473;52.342;13.110;2022-09-13T06:54:54;11.23;;;7.30;;
18685;SDS011;9473;52.342;13.110;2022-09-13T06:57:21;11.93;;;7.35;;
18685;SDS011;9473;52.342;13.110;2022-09-13T06:59:48;14.00;;;7.43;;
18685;SDS011;9473;52.342;13.110;2022-09-13T07:02:15;13.98;;;7.45;;
18685;SDS011;9473;52.342;13.110;2022-09-13T07:04:42;11.93;;;7.47;;
18685;SDS011;9473;52.342;13.110;2022-09-13T07:07:10;13.60;;;7.97;;
18685;SDS011;9473;52.342;13.110;2022-09-13T07:09:37;12.85;;;8.05;;
18685;SDS011;9473;52.342;13.110;2022-09-13T07:12:07;13.38;;;7.60;;
18685;SDS011;9473;52.342;13.110;2022-09-13T07:14:34;14.32;;;8.43;;
18685;SDS011;9473;52.342;13.110;2022-09-13T07:17:01;14.07;;;8.23;;
18685;SDS011;9473;52.342;13.110;2022-09-13T07:19:28;13.52;;;8.70;;
18685;SDS011;9473;52.342;13.110;2022-09-13T07:21:55;13.50;;;8.35;;
18685;SDS011;9473;52.342;13.110;2022-09-13T07:24:24;14.07;;;8.15;;
18685;SDS011;9473;52.342;13.110;2022-09-13T07:26:51;14.45;;;8.45;;
18685;SDS011;9473;52.342;13.110;2022-09-13T07:29:20;14.70;;;8.65;;
18685;SDS011;9473;52.342;13.110;2022-09-13T07:31:48;13.50;;;8.52;;
18685;SDS011;9473;52.342;13.110;2022-09-13T07:34:16;14.77;;;8.30;;
18685;SDS011;9473;52.342;13.110;2022-09-13T07:36:44;17.35;;;8.85;;
18685;SDS011;9473;52.342;13.110;2022-09-13T07:39:11;17.05;;;9.65;;
18685;SDS011;9473;52.342;13.110;2022-09-13T07:41:40;16.40;;;10.10;;
18685;SDS011;9473;52.342;13.110;2022-09-13T07:44:08;14.35;;;8.80;;
18685;SDS011;9473;52.342;13.110;2022-09-13T07:46:35;17.65;;;9.63;;
18685;SDS011;9473;52.342;13.110;2022-09-13T07:49:08;17.95;;;9.30;;
18685;SDS011;9473;52.342;13.110;2022-09-13T07:51:36;14.23;;;8.93;;
18685;SDS011;9473;52.342;13.110;2022-09-13T07:54:04;15.70;;;9.25;;
18685;SDS011;9473;52.342;13.110;2022-09-13T07:56:32;13.82;;;9.05;;
18685;SDS011;9473;52.342;13.110;2022-09-13T07:59:01;15.52;;;9.80;;
18685;SDS011;9473;52.342;13.110;2022-09-13T08:01:29;15.25;;;8.88;;
18685;SDS011;9473;52.342;13.110;2022-09-13T08:03:56;15.38;;;9.45;;
18685;SDS011;9473;52.342;13.110;2022-09-13T08:06:24;15.32;;;9.63;;
18685;SDS011;9473;52.342;13.110;2022-09-13T08:08:51;15.48;;;9.05;;
18685;SDS011;9473;52.342;13.110;2022-09-13T08:11:19;15.05;;;9.23;;
18685;SDS011;9473;52.342;13.110;2022-09-13T08:13:46;13.85;;;9.00;;
18685;SDS011;9473;52.342;13.110;2022-09-13T08:16:15;16.38;;;9.60;;
18685;SDS011;9473;52.342;13.110;2022-09-13T08:18:42;14.30;;;9.27;;
18685;SDS011;9473;52.342;13.110;2022-09-13T08:21:10;16.50;;;10.02;;
18685;SDS011;9473;52.342;13.110;2022-09-13T08:23:37;18.35;;;10.40;;
18685;SDS011;9473;52.342;13.110;2022-09-13T08:26:05;15.40;;;9.38;;
18685;SDS011;9473;52.342;13.110;2022-09-13T08:28:32;17.17;;;9.63;;
18685;SDS011;9473;52.342;13.110;2022-09-13T08:31:03;15.65;;;9.75;;
18685;SDS011;9473;52.342;13.110;2022-09-13T08:33:31;16.48;;;9.68;;
18685;SDS011;9473;52.342;13.110;2022-09-13T08:35:58;15.20;;;8.93;;
18685;SDS011;9473;52.342;13.110;2022-09-13T08:38:25;15.05;;;9.25;;
18685;SDS011;9473;52.342;13.110;2022-09-13T08:40:54;19.50;;;10.50;;
18685;SDS011;9473;52.342;13.110;2022-09-13T08:43:23;18.38;;;10.05;;
18685;SDS011;9473;52.342;13.110;2022-09-13T08:45:54;15.88;;;9.18;;
18685;SDS011;9473;52.342;13.110;2022-09-13T08:48:25;20.10;;;11.00;;
18685;SDS011;9473;52.342;13.110;2022-09-13T08:50:57;17.73;;;10.02;;
18685;SDS011;9473;52.342;13.110;2022-09-13T08:53:27;17.33;;;9.90;;
18685;SDS011;9473;52.342;13.110;2022-09-13T08:55:56;17.40;;;10.32;;
18685;SDS011;9473;52.342;13.110;2022-09-13T08:58:38;17.25;;;10.00;;
18685;SDS011;9473;52.342;13.110;2022-09-13T09:01:12;18.90;;;10.23;;
18685;SDS011;9473;52.342;13.110;2022-09-13T09:03:41;22.20;;;10.38;;
18685;SDS011;9473;52.342;13.110;2022-09-13T09:06:12;15.73;;;9.55;;
18685;SDS011;9473;52.342;13.110;2022-09-13T09:08:41;14.75;;;9.07;;
18685;SDS011;9473;52.342;13.110;2022-09-13T09:11:13;17.17;;;9.63;;
18685;SDS011;9473;52.342;13.110;2022-09-13T09:13:47;17.17;;;9.68;;
18685;SDS011;9473;52.342;13.110;2022-09-13T09:16:15;16.95;;;8.57;;
18685;SDS011;9473;52.342;13.110;2022-09-13T09:18:48;17.63;;;9.18;;
18685;SDS011;9473;52.342;13.110;2022-09-13T09:21:17;16.17;;;9.25;;
18685;SDS011;9473;52.342;13.110;2022-09-13T09:23:47;16.92;;;9.45;;
18685;SDS011;9473;52.342;13.110;2022-09-13T09:26:15;15.45;;;9.27;;
18685;SDS011;9473;52.342;13.110;2022-09-13T09:28:44;17.60;;;8.73;;
18685;SDS011;9473;52.342;13.110;2022-09-13T09:31:13;15.93;;;9.10;;
18685;SDS011;9473;52.342;13.110;2022-09-13T09:33:45;14.23;;;8.40;;
18685;SDS011;9473;52.342;13.110;2022-09-13T09:36:17;14.18;;;8.45;;
18685;SDS011;9473;52.342;13.110;2022-09-13T09:38:48;15.13;;;8.65;;
18685;SDS011;9473;52.342;13.110;2022-09-13T09:41:20;15.85;;;8.73;;
18685;SDS011;9473;52.342;13.110;2022-09-13T09:43:52;16.40;;;8.82;;
18685;SDS011;9473;52.342;13.110;2022-09-13T09:46:21;13.07;;;8.05;;
18685;SDS011;9473;52.342;13.110;2022-09-13T09:48:50;12.27;;;7.10;;
18685;SDS011;9473;52.342;13.110;2022-09-13T09:51:19;9.60;;;6.82;;
18685;SDS011;9473;52.342;13.110;2022-09-13T09:53:48;11.68;;;7.35;;
18685;SDS011;9473;52.342;13.110;2022-09-13T09:56:20;11.35;;;7.18;;
18685;SDS011;9473;52.342;13.110;2022-09-13T09:58:48;12.05;;;7.13;;
18685;SDS011;9473;52.342;13.110;2022-09-13T10:01:17;12.30;;;7.47;;
18685;SDS011;9473;52.342;13.110;2022-09-13T10:03:49;13.98;;;8.15;;
18685;SDS011;9473;52.342;13.110;2022-09-13T10:06:18;10.20;;;7.13;;
18685;SDS011;9473;52.342;13.110;2022-09-13T10:08:48;11.93;;;7.25;;
18685;SDS011;9473;52.342;13.110;2022-09-13T10:11:20;11.77;;;7.10;;
18685;SDS011;9473;52.342;13.110;2022-09-13T10:13:57;11.40;;;6.97;;
18685;SDS011;9473;52.342;13.110;2022-09-13T10:16:24;11.05;;;6.88;;
18685;SDS011;9473;52.342;13.110;2022-09-13T10:18:53;10.43;;;6.60;;
18685;SDS011;9473;52.342;13.110;2022-09-13T10:21:21;14.20;;;7.07;;
18685;SDS011;9473;52.342;13.110;2022-09-13T10:23:49;12.57;;;6.65;;
18685;SDS011;9473;52.342;13.110;2022-09-13T10:26:17;12.88;;;7.03;;
18685;SDS011;9473;52.342;13.110;2022-09-13T10:28:46;10.27;;;6.20;;
18685;SDS011;9473;52.342;13.110;2022-09-13T10:31:16;10.70;;;5.93;;
18685;SDS011;9473;52.342;13.110;2022-09-13T10:33:45;9.88;;;6.07;;
18685;SDS011;9473;52.342;13.110;2022-09-13T10:36:18;11.30;;;6.25;;
18685;SDS011;9473;52.342;13.110;2022-09-13T10:38:50;9.63;;;5.45;;
18685;SDS011;9473;52.342;13.110;2022-09-13T10:41:23;9.60;;;5.47;;
18685;SDS011;9473;52.342;13.110;2022-09-13T10:43:55;8.60;;;5.20;;
18685;SDS011;9473;52.342;13.110;2022-09-13T10:46:22;8.75;;;5.75;;
18685;SDS011;9473;52.342;13.110;2022-09-13T10:48:50;7.65;;;5.10;;
18685;SDS011;9473;52.342;13.110;2022-09-13T10:51:27;8.68;;;5.15;;
18685;SDS011;9473;52.342;13.110;2022-09-13T10:54:07;7.05;;;4.50;;
18685;SDS011;9473;52.342;13.110;2022-09-13T10:56:35;7.32;;;5.05;;
18685;SDS011;9473;52.342;13.110;2022-09-13T10:59:13;6.30;;;4.63;;
18685;SDS011;9473;52.342;13.110;2022-09-13T11:01:42;7.15;;;4.70;;
18685;SDS011;9473;52.342;13.110;2022-09-13T11:07:16;9.15;;;4.90;;
18685;SDS011;9473;52.342;13.110;2022-09-13T11:09:50;10.18;;;5.38;;
18685;SDS011;9473;52.342;13.110;2022-09-13T11:12:21;8.68;;;5.20;;
18685;SDS011;9473;52.342;13.110;2022-09-13T11:14:53;10.23;;;5.63;;
18685;SDS011;9473;52.342;13.110;2022-09-13T11:17:25;11.32;;;5.30;;
18685;SDS011;9473;52.342;13.110;2022-09-13T11:20:01;9.05;;;5.60;;
18685;SDS011;9473;52.342;13.110;2022-09-13T11:22:37;13.50;;;6.72;;
18685;SDS011;9473;52.342;13.110;2022-09-13T11:25:15;9.90;;;6.28;;
18685;SDS011;9473;52.342;13.110;2022-09-13T11:27:47;14.40;;;6.93;;
18685;SDS011;9473;52.342;13.110;2022-09-13T11:30:16;10.60;;;6.53;;
18685;SDS011;9473;52.342;13.110;2022-09-13T11:33:04;12.10;;;7.47;;
18685;SDS011;9473;52.342;13.110;2022-09-13T11:35:36;10.07;;;6.47;;
18685;SDS011;9473;52.342;13.110;2022-09-13T11:38:14;13.02;;;7.15;;
18685;SDS011;9473;52.342;13.110;2022-09-13T11:40:46;11.52;;;7.50;;
18685;SDS011;9473;52.342;13.110;2022-09-13T11:43:18;12.15;;;7.75;;
18685;SDS011;9473;52.342;13.110;2022-09-13T11:45:49;11.63;;;7.10;;
18685;SDS011;9473;52.342;13.110;2022-09-13T11:48:24;10.65;;;6.90;;
18685;SDS011;9473;52.342;13.110;2022-09-13T11:50:56;12.00;;;6.97;;
18685;SDS011;9473;52.342;13.110;2022-09-13T11:53:28;10.60;;;6.80;;
18685;SDS011;9473;52.342;13.110;2022-09-13T11:55:59;11.32;;;7.07;;
18685;SDS011;9473;52.342;13.110;2022-09-13T11:58:28;11.43;;;7.00;;
18685;SDS011;9473;52.342;13.110;2022-09-13T12:00:58;11.98;;;7.10;;
18685;SDS011;9473;52.342;13.110;2022-09-13T12:03:27;12.38;;;7.32;;
18685;SDS011;9473;52.342;13.110;2022-09-13T12:05:56;10.57;;;7.05;;
18685;SDS011;9473;52.342;13.110;2022-09-13T12:08:26;10.32;;;6.93;;
18685;SDS011;9473;52.342;13.110;2022-09-13T12:10:55;12.40;;;7.13;;
18685;SDS011;9473;52.342;13.110;2022-09-13T12:13:26;12.27;;;7.35;;
18685;SDS011;9473;52.342;13.110;2022-09-13T12:15:55;12.93;;;7.55;;
18685;SDS011;9473;52.342;13.110;2022-09-13T12:18:23;12.90;;;7.97;;
18685;SDS011;9473;52.342;13.110;2022-09-13T12:20:52;12.82;;;7.97;;
18685;SDS011;9473;52.342;13.110;2022-09-13T12:23:22;16.42;;;8.77;;
18685;SDS011;9473;52.342;13.110;2022-09-13T12:25:54;11.27;;;7.45;;
18685;SDS011;9473;52.342;13.110;2022-09-13T12:28:25;15.52;;;8.35;;
18685;SDS011;9473;52.342;13.110;2022-09-13T12:30:53;11.57;;;7.50;;
18685;SDS011;9473;52.342;13.110;2022-09-13T12:33:21;11.23;;;7.35;;
18685;SDS011;9473;52.342;13.110;2022-09-13T12:35:50;14.88;;;7.55;;
18685;SDS011;9473;52.342;13.110;2022-09-13T12:38:26;13.48;;;8.00;;
18685;SDS011;9473;52.342;13.110;2022-09-13T12:43:54;15.23;;;7.25;;
18685;SDS011;9473;52.342;13.110;2022-09-13T12:46:38;12.82;;;7.30;;
18685;SDS011;9473;52.342;13.110;2022-09-13T12:52:02;12.82;;;7.43;;
18685;SDS011;9473;52.342;13.110;2022-09-13T12:54:37;11.35;;;7.65;;
18685;SDS011;9473;52.342;13.110;2022-09-13T12:57:09;13.38;;;7.57;;
18685;SDS011;9473;52.342;13.110;2022-09-13T12:59:48;12.13;;;7.35;;
18685;SDS011;9473;52.342;13.110;2022-09-13T13:02:21;14.93;;;7.05;;
18685;SDS011;9473;52.342;13.110;2022-09-13T13:04:49;12.05;;;7.05;;
18685;SDS011;9473;52.342;13.110;2022-09-13T13:07:20;11.52;;;7.40;;
18685;SDS011;9473;52.342;13.110;2022-09-13T13:09:48;13.52;;;7.38;;
18685;SDS011;9473;52.342;13.110;2022-09-13T13:12:24;12.75;;;7.18;;
18685;SDS011;9473;52.342;13.110;2022-09-13T13:14:53;11.43;;;7.30;;
18685;SDS011;9473;52.342;13.110;2022-09-13T13:17:37;12.10;;;7.40;;
18685;SDS011;9473;52.342;13.110;2022-09-13T13:22:48;12.07;;;7.45;;
18685;SDS011;9473;52.342;13.110;2022-09-13T13:25:31;14.90;;;8.27;;
18685;SDS011;9473;52.342;13.110;2022-09-13T13:28:01;13.23;;;7.53;;
18685;SDS011;9473;52.342;13.110;2022-09-13T13:33:28;13.95;;;7.90;;
18685;SDS011;9473;52.342;13.110;2022-09-13T13:35:55;13.75;;;7.75;;
18685;SDS011;9473;52.342;13.110;2022-09-13T13:44:00;12.68;;;7.60;;
18685;SDS011;9473;52.342;13.110;2022-09-13T13:46:28;13.02;;;7.85;;
18685;SDS011;9473;52.342;13.110;2022-09-13T13:48:56;13.55;;;7.68;;
18685;SDS011;9473;52.342;13.110;2022-09-13T13:51:44;15.50;;;8.07;;
18685;SDS011;9473;52.342;13.110;2022-09-13T13:54:27;11.82;;;7.90;;
18685;SDS011;9473;52.342;13.110;2022-09-13T13:56:54;11.05;;;7.32;;
18685;SDS011;9473;52.342;13.110;2022-09-13T13:59:24;10.75;;;6.72;;
18685;SDS011;9473;52.342;13.110;2022-09-13T14:01:53;13.75;;;7.13;;
18685;SDS011;9473;52.342;13.110;2022-09-13T14:07:28;11.38;;;6.80;;
18685;SDS011;9473;52.342;13.110;2022-09-13T14:10:00;9.43;;;6.22;;
18685;SDS011;9473;52.342;13.110;2022-09-13T14:12:33;10.75;;;6.85;;
18685;SDS011;9473;52.342;13.110;2022-09-13T14:18:05;10.70;;;6.75;;
18685;SDS011;9473;52.342;13.110;2022-09-13T14:20:37;9.60;;;6.32;;
18685;SDS011;9473;52.342;13.110;2022-09-13T14:25:53;12.35;;;6.43;;
18685;SDS011;9473;52.342;13.110;2022-09-13T14:28:20;11.15;;;6.30;;
18685;SDS011;9473;52.342;13.110;2022-09-13T14:30:50;8.65;;;5.85;;
18685;SDS011;9473;52.342;13.110;2022-09-13T14:33:21;11.57;;;6.15;;
18685;SDS011;9473;52.342;13.110;2022-09-13T14:35:54;6.55;;;4.78;;
18685;SDS011;9473;52.342;13.110;2022-09-13T14:38:22;8.82;;;5.45;;
18685;SDS011;9473;52.342;13.110;2022-09-13T14:40:50;8.70;;;5.60;;
18685;SDS011;9473;52.342;13.110;2022-09-13T14:43:19;6.75;;;4.75;;
18685;SDS011;9473;52.342;13.110;2022-09-13T14:45:47;11.13;;;5.35;;
18685;SDS011;9473;52.342;13.110;2022-09-13T14:48:16;7.78;;;4.82;;
18685;SDS011;9473;52.342;13.110;2022-09-13T14:50:46;9.35;;;5.25;;
18685;SDS011;9473;52.342;13.110;2022-09-13T14:53:15;6.60;;;4.53;;
18685;SDS011;9473;52.342;13.110;2022-09-13T14:55:45;8.38;;;4.35;;
18685;SDS011;9473;52.342;13.110;2022-09-13T14:58:14;7.40;;;4.50;;
18685;SDS011;9473;52.342;13.110;2022-09-13T15:00:46;8.35;;;4.25;;
18685;SDS011;9473;52.342;13.110;2022-09-13T15:03:15;7.25;;;4.60;;
18685;SDS011;9473;52.342;13.110;2022-09-13T15:05:49;5.97;;;4.00;;
18685;SDS011;9473;52.342;13.110;2022-09-13T15:08:26;5.88;;;4.35;;
18685;SDS011;9473;52.342;13.110;2022-09-13T15:10:55;6.20;;;4.05;;
18685;SDS011;9473;52.342;13.110;2022-09-13T15:13:22;7.47;;;4.47;;
18685;SDS011;9473;52.342;13.110;2022-09-13T15:15:51;4.97;;;3.72;;
18685;SDS011;9473;52.342;13.110;2022-09-13T15:18:24;5.53;;;4.05;;
18685;SDS011;9473;52.342;13.110;2022-09-13T15:20:52;5.30;;;3.83;;
18685;SDS011;9473;52.342;13.110;2022-09-13T15:23:21;5.85;;;4.15;;
18685;SDS011;9473;52.342;13.110;2022-09-13T15:25:50;5.50;;;3.42;;
18685;SDS011;9473;52.342;13.110;2022-09-13T15:28:21;6.53;;;3.80;;
18685;SDS011;9473;52.342;13.110;2022-09-13T15:30:49;6.90;;;3.60;;